sensor_id;sensor_type;location;lat;lon;timestamp;pressure;altitude;pressure_sealevel;temperature;humidity
25084;BME280;13075;55.682;37.564;2022-08-21T00:01:51;100390.97;;;19.55;68.44
25084;BME280;13075;55.682;37.564;2022-08-21T00:04:16;100391.56;;;19.57;68.14
25084;BME280;13075;55.682;37.564;2022-08-21T00:06:42;100395.56;;;19.55;67.83
25084;BME280;13075;55.682;37.564;2022-08-21T00:09:08;100394.06;;;19.59;67.75
25084;BME280;13075;55.682;37.564;2022-08-21T00:11:36;100389.22;;;19.61;67.57
25084;BME280;13075;55.682;37.564;2022-08-21T00:14:04;100389.69;;;19.58;68.10
25084;BME280;13075;55.682;37.564;2022-08-21T00:16:30;100386.28;;;19.51;68.39
25084;BME280;13075;55.682;37.564;2022-08-21T00:18:55;100388.72;;;19.52;68.19
25084;BME280;13075;55.682;37.564;2022-08-21T00:21:21;100385.78;;;19.42;69.22
25084;BME280;13075;55.682;37.564;2022-08-21T00:23:47;100391.81;;;19.44;69.43
25084;BME280;13075;55.682;37.564;2022-08-21T00:26:13;100383.66;;;19.44;69.00
25084;BME280;13075;55.682;37.564;2022-08-21T00:28:38;100397.13;;;19.39;69.64
25084;BME280;13075;55.682;37.564;2022-08-21T00:31:04;100393.44;;;19.34;70.70
25084;BME280;13075;55.682;37.564;2022-08-21T00:33:31;100387.78;;;19.35;70.82
25084;BME280;13075;55.682;37.564;2022-08-21T00:35:57;100385.53;;;19.20;70.87
25084;BME280;13075;55.682;37.564;2022-08-21T00:38:23;100391.56;;;19.22;70.35
25084;BME280;13075;55.682;37.564;2022-08-21T00:40:53;100384.47;;;19.21;70.91
25084;BME280;13075;55.682;37.564;2022-08-21T00:43:26;100383.06;;;19.19;70.99
25084;BME280;13075;55.682;37.564;2022-08-21T00:45:53;100395.19;;;19.05;70.84
25084;BME280;13075;55.682;37.564;2022-08-21T00:48:20;100392.00;;;19.08;71.31
25084;BME280;13075;55.682;37.564;2022-08-21T00:50:58;100386.94;;;19.11;71.16
25084;BME280;13075;55.682;37.564;2022-08-21T00:53:27;100386.47;;;19.03;71.92
25084;BME280;13075;55.682;37.564;2022-08-21T00:55:53;100385.63;;;19.02;72.58
25084;BME280;13075;55.682;37.564;2022-08-21T00:58:20;100385.53;;;19.09;72.22
25084;BME280;13075;55.682;37.564;2022-08-21T01:03:24;100391.16;;;18.96;72.92
25084;BME280;13075;55.682;37.564;2022-08-21T01:05:51;100396.00;;;18.94;73.03
25084;BME280;13075;55.682;37.564;2022-08-21T01:08:19;100401.06;;;18.90;73.63
25084;BME280;13075;55.682;37.564;2022-08-21T01:10:45;100401.53;;;18.87;73.83
25084;BME280;13075;55.682;37.564;2022-08-21T01:13:15;100399.41;;;18.78;75.56
25084;BME280;13075;55.682;37.564;2022-08-21T01:15:44;100401.97;;;18.73;76.80
25084;BME280;13075;55.682;37.564;2022-08-21T01:18:12;100402.44;;;18.70;77.64
25084;BME280;13075;55.682;37.564;2022-08-21T01:20:44;100391.47;;;18.64;77.93
25084;BME280;13075;55.682;37.564;2022-08-21T01:23:09;100387.78;;;18.59;77.81
25084;BME280;13075;55.682;37.564;2022-08-21T01:25:35;100389.91;;;18.68;77.18
25084;BME280;13075;55.682;37.564;2022-08-21T01:28:06;100378.50;;;18.66;77.92
25084;BME280;13075;55.682;37.564;2022-08-21T01:30:35;100389.13;;;18.68;76.72
25084;BME280;13075;55.682;37.564;2022-08-21T01:33:05;100400.63;;;18.52;77.67
25084;BME280;13075;55.682;37.564;2022-08-21T01:35:31;100396.25;;;18.51;78.13
25084;BME280;13075;55.682;37.564;2022-08-21T01:38:00;100384.81;;;18.49;78.47
25084;BME280;13075;55.682;37.564;2022-08-21T01:40:25;100388.06;;;18.39;80.05
25084;BME280;13075;55.682;37.564;2022-08-21T01:42:51;100396.41;;;18.38;80.03
25084;BME280;13075;55.682;37.564;2022-08-21T01:45:17;100392.25;;;18.35;80.63
25084;BME280;13075;55.682;37.564;2022-08-21T01:47:44;100388.13;;;18.33;81.48
25084;BME280;13075;55.682;37.564;2022-08-21T01:50:13;100397.19;;;18.27;82.72
25084;BME280;13075;55.682;37.564;2022-08-21T01:52:39;100387.16;;;18.27;82.64
25084;BME280;13075;55.682;37.564;2022-08-21T01:55:09;100393.66;;;18.26;83.19
25084;BME280;13075;55.682;37.564;2022-08-21T01:57:35;100392.44;;;18.22;83.48
25084;BME280;13075;55.682;37.564;2022-08-21T02:00:05;100395.00;;;18.17;84.57
25084;BME280;13075;55.682;37.564;2022-08-21T02:02:38;100395.16;;;18.22;83.79
25084;BME280;13075;55.682;37.564;2022-08-21T02:05:04;100393.81;;;18.13;85.16
25084;BME280;13075;55.682;37.564;2022-08-21T02:07:41;100398.06;;;18.09;85.91
25084;BME280;13075;55.682;37.564;2022-08-21T02:10:09;100392.78;;;18.14;85.52
25084;BME280;13075;55.682;37.564;2022-08-21T02:12:35;100398.06;;;18.09;86.11
25084;BME280;13075;55.682;37.564;2022-08-21T02:15:01;100396.41;;;18.08;86.64
25084;BME280;13075;55.682;37.564;2022-08-21T02:17:26;100387.00;;;18.11;86.23
25084;BME280;13075;55.682;37.564;2022-08-21T02:19:52;100392.03;;;18.07;87.27
25084;BME280;13075;55.682;37.564;2022-08-21T02:22:17;100394.06;;;18.12;86.53
25084;BME280;13075;55.682;37.564;2022-08-21T02:24:43;100391.81;;;18.09;87.35
25084;BME280;13075;55.682;37.564;2022-08-21T02:27:09;100394.06;;;18.12;87.34
25084;BME280;13075;55.682;37.564;2022-08-21T02:29:34;100399.09;;;18.08;88.13
25084;BME280;13075;55.682;37.564;2022-08-21T02:32:00;100405.94;;;18.11;87.72
25084;BME280;13075;55.682;37.564;2022-08-21T02:34:26;100403.84;;;18.13;87.67
25084;BME280;13075;55.682;37.564;2022-08-21T02:36:51;100401.44;;;18.04;88.52
25084;BME280;13075;55.682;37.564;2022-08-21T02:39:17;100397.88;;;18.04;88.91
25084;BME280;13075;55.682;37.564;2022-08-21T02:41:43;100400.94;;;17.96;90.91
25084;BME280;13075;55.682;37.564;2022-08-21T02:44:08;100394.59;;;18.02;90.72
25084;BME280;13075;55.682;37.564;2022-08-21T02:46:34;100405.28;;;17.97;90.81
25084;BME280;13075;55.682;37.564;2022-08-21T02:49:00;100404.97;;;18.05;89.59
25084;BME280;13075;55.682;37.564;2022-08-21T02:51:25;100403.78;;;18.01;91.27
25084;BME280;13075;55.682;37.564;2022-08-21T02:53:52;100395.97;;;17.93;92.67
25084;BME280;13075;55.682;37.564;2022-08-21T02:56:20;100401.66;;;18.03;92.46
25084;BME280;13075;55.682;37.564;2022-08-21T02:58:49;100396.47;;;18.01;92.22
25084;BME280;13075;55.682;37.564;2022-08-21T03:01:17;100404.41;;;18.15;91.44
25084;BME280;13075;55.682;37.564;2022-08-21T03:03:45;100410.91;;;18.14;92.32
25084;BME280;13075;55.682;37.564;2022-08-21T03:06:13;100411.59;;;18.09;91.49
25084;BME280;13075;55.682;37.564;2022-08-21T03:08:39;100412.66;;;18.08;91.59
25084;BME280;13075;55.682;37.564;2022-08-21T03:11:05;100404.34;;;18.21;90.54
25084;BME280;13075;55.682;37.564;2022-08-21T03:13:31;100418.88;;;18.27;89.91
25084;BME280;13075;55.682;37.564;2022-08-21T03:15:57;100418.88;;;18.27;88.89
25084;BME280;13075;55.682;37.564;2022-08-21T03:18:23;100413.44;;;18.27;89.75
25084;BME280;13075;55.682;37.564;2022-08-21T03:20:49;100407.66;;;18.23;90.50
25084;BME280;13075;55.682;37.564;2022-08-21T03:23:16;100409.97;;;18.20;91.18
25084;BME280;13075;55.682;37.564;2022-08-21T03:25:42;100409.94;;;18.38;88.36
25084;BME280;13075;55.682;37.564;2022-08-21T03:28:14;100415.00;;;18.34;90.56
25084;BME280;13075;55.682;37.564;2022-08-21T03:30:42;100419.03;;;18.43;88.61
25084;BME280;13075;55.682;37.564;2022-08-21T03:33:08;100424.88;;;18.47;86.71
25084;BME280;13075;55.682;37.564;2022-08-21T03:35:33;100417.72;;;18.34;88.65
25084;BME280;13075;55.682;37.564;2022-08-21T03:37:59;100414.03;;;18.29;89.20
25084;BME280;13075;55.682;37.564;2022-08-21T03:40:25;100419.59;;;18.34;89.23
25084;BME280;13075;55.682;37.564;2022-08-21T03:42:51;100420.75;;;18.26;90.02
25084;BME280;13075;55.682;37.564;2022-08-21T03:45:17;100422.69;;;18.37;89.18
25084;BME280;13075;55.682;37.564;2022-08-21T03:47:56;100426.72;;;18.46;88.37
25084;BME280;13075;55.682;37.564;2022-08-21T03:50:28;100420.88;;;18.31;89.38
25084;BME280;13075;55.682;37.564;2022-08-21T03:52:55;100416.28;;;18.50;87.36
25084;BME280;13075;55.682;37.564;2022-08-21T03:55:20;100416.13;;;18.45;88.01
25084;BME280;13075;55.682;37.564;2022-08-21T03:57:46;100421.59;;;18.56;86.60
25084;BME280;13075;55.682;37.564;2022-08-21T04:00:13;100417.25;;;18.55;86.37
25084;BME280;13075;55.682;37.564;2022-08-21T04:02:40;100416.91;;;18.63;86.34
25084;BME280;13075;55.682;37.564;2022-08-21T04:05:07;100417.97;;;18.62;85.63
25084;BME280;13075;55.682;37.564;2022-08-21T04:07:33;100409.38;;;18.65;86.37
25084;BME280;13075;55.682;37.564;2022-08-21T04:09:59;100409.28;;;18.72;84.20
25084;BME280;13075;55.682;37.564;2022-08-21T04:12:24;100413.72;;;18.66;84.14
25084;BME280;13075;55.682;37.564;2022-08-21T04:14:50;100398.69;;;18.82;83.02
25084;BME280;13075;55.682;37.564;2022-08-21T04:17:18;100403.53;;;18.92;81.91
25084;BME280;13075;55.682;37.564;2022-08-21T04:19:44;100410.69;;;18.75;83.53
25084;BME280;13075;55.682;37.564;2022-08-21T04:22:12;100409.53;;;18.82;82.41
25084;BME280;13075;55.682;37.564;2022-08-21T04:24:38;100416.69;;;18.65;83.63
25084;BME280;13075;55.682;37.564;2022-08-21T04:27:04;100411.06;;;18.78;83.13
25084;BME280;13075;55.682;37.564;2022-08-21T04:29:29;100407.16;;;18.74;84.36
25084;BME280;13075;55.682;37.564;2022-08-21T04:31:55;100415.06;;;18.76;84.02
25084;BME280;13075;55.682;37.564;2022-08-21T04:34:21;100413.88;;;18.72;82.82
25084;BME280;13075;55.682;37.564;2022-08-21T04:36:46;100415.28;;;18.74;83.50
25084;BME280;13075;55.682;37.564;2022-08-21T04:39:12;100418.38;;;18.78;82.07
25084;BME280;13075;55.682;37.564;2022-08-21T04:41:37;100414.69;;;18.72;82.64
25084;BME280;13075;55.682;37.564;2022-08-21T04:44:04;100415.94;;;18.99;80.96
25084;BME280;13075;55.682;37.564;2022-08-21T04:46:29;100415.00;;;19.05;80.09
25084;BME280;13075;55.682;37.564;2022-08-21T04:48:55;100404.63;;;19.14;79.64
25084;BME280;13075;55.682;37.564;2022-08-21T04:51:29;100412.78;;;19.25;77.71
25084;BME280;13075;55.682;37.564;2022-08-21T04:54:08;100424.59;;;19.19;77.05
25084;BME280;13075;55.682;37.564;2022-08-21T04:56:42;100427.53;;;19.29;76.43
25084;BME280;13075;55.682;37.564;2022-08-21T04:59:14;100418.63;;;19.41;74.90
25084;BME280;13075;55.682;37.564;2022-08-21T05:01:42;100423.69;;;19.37;76.17
25084;BME280;13075;55.682;37.564;2022-08-21T05:04:12;100409.84;;;19.39;76.14
25084;BME280;13075;55.682;37.564;2022-08-21T05:06:40;100412.09;;;19.42;76.23
25084;BME280;13075;55.682;37.564;2022-08-21T05:09:07;100409.63;;;19.63;74.80
25084;BME280;13075;55.682;37.564;2022-08-21T05:11:35;100408.44;;;19.71;73.42
25084;BME280;13075;55.682;37.564;2022-08-21T05:14:02;100415.59;;;19.77;73.04
25084;BME280;13075;55.682;37.564;2022-08-21T05:16:28;100422.94;;;19.76;71.43
25084;BME280;13075;55.682;37.564;2022-08-21T05:18:54;100407.81;;;19.92;69.30
25084;BME280;13075;55.682;37.564;2022-08-21T05:21:19;100409.31;;;20.39;66.10
25084;BME280;13075;55.682;37.564;2022-08-21T05:23:46;100409.81;;;20.81;64.02
25084;BME280;13075;55.682;37.564;2022-08-21T05:26:12;100403.84;;;21.13;61.31
25084;BME280;13075;55.682;37.564;2022-08-21T05:28:37;100397.03;;;21.65;59.06
25084;BME280;13075;55.682;37.564;2022-08-21T05:31:03;100393.50;;;21.86;56.74
25084;BME280;13075;55.682;37.564;2022-08-21T05:33:29;100399.97;;;21.42;58.47
25084;BME280;13075;55.682;37.564;2022-08-21T05:35:56;100404.91;;;21.28;58.85
25084;BME280;13075;55.682;37.564;2022-08-21T05:38:23;100401.84;;;21.25;59.63
25084;BME280;13075;55.682;37.564;2022-08-21T05:40:49;100403.59;;;21.31;60.54
25084;BME280;13075;55.682;37.564;2022-08-21T05:43:16;100401.94;;;21.30;58.66
25084;BME280;13075;55.682;37.564;2022-08-21T05:45:42;100399.38;;;21.06;58.40
25084;BME280;13075;55.682;37.564;2022-08-21T05:48:10;100399.56;;;21.33;58.69
25084;BME280;13075;55.682;37.564;2022-08-21T05:50:36;100397.31;;;21.47;58.01
25084;BME280;13075;55.682;37.564;2022-08-21T05:53:04;100399.06;;;21.20;57.62
25084;BME280;13075;55.682;37.564;2022-08-21T05:55:29;100402.53;;;21.32;57.60
25084;BME280;13075;55.682;37.564;2022-08-21T05:57:56;100394.44;;;21.20;57.12
25084;BME280;13075;55.682;37.564;2022-08-21T06:00:21;100406.97;;;21.38;57.09
25084;BME280;13075;55.682;37.564;2022-08-21T06:02:49;100392.53;;;21.37;57.18
25084;BME280;13075;55.682;37.564;2022-08-21T06:05:16;100385.31;;;21.48;57.11
25084;BME280;13075;55.682;37.564;2022-08-21T06:07:42;100391.44;;;21.55;56.05
25084;BME280;13075;55.682;37.564;2022-08-21T06:10:09;100384.94;;;21.78;54.88
25084;BME280;13075;55.682;37.564;2022-08-21T06:12:34;100381.13;;;21.79;53.77
25084;BME280;13075;55.682;37.564;2022-08-21T06:15:00;100382.94;;;21.90;53.43
25084;BME280;13075;55.682;37.564;2022-08-21T06:17:25;100387.72;;;22.04;52.66
25084;BME280;13075;55.682;37.564;2022-08-21T06:19:54;100379.66;;;21.88;52.19
25084;BME280;13075;55.682;37.564;2022-08-21T06:22:20;100381.72;;;21.81;51.81
25084;BME280;13075;55.682;37.564;2022-08-21T06:24:46;100374.66;;;21.85;52.19
25084;BME280;13075;55.682;37.564;2022-08-21T06:27:12;100384.94;;;22.21;51.99
25084;BME280;13075;55.682;37.564;2022-08-21T06:29:37;100378.72;;;22.25;51.15
25084;BME280;13075;55.682;37.564;2022-08-21T06:32:04;100377.81;;;22.42;50.75
25084;BME280;13075;55.682;37.564;2022-08-21T06:34:31;100377.28;;;22.71;49.33
25084;BME280;13075;55.682;37.564;2022-08-21T06:36:57;100383.53;;;22.67;49.89
25084;BME280;13075;55.682;37.564;2022-08-21T06:39:23;100376.91;;;22.89;49.09
25084;BME280;13075;55.682;37.564;2022-08-21T06:41:48;100371.25;;;22.96;47.87
25084;BME280;13075;55.682;37.564;2022-08-21T06:44:16;100377.66;;;23.12;46.92
25084;BME280;13075;55.682;37.564;2022-08-21T06:46:42;100360.47;;;23.16;46.94
25084;BME280;13075;55.682;37.564;2022-08-21T06:49:07;100367.47;;;23.39;46.24
25084;BME280;13075;55.682;37.564;2022-08-21T06:51:33;100367.91;;;24.30;44.01
25084;BME280;13075;55.682;37.564;2022-08-21T06:53:58;100378.00;;;24.19;43.33
25084;BME280;13075;55.682;37.564;2022-08-21T06:56:24;100372.88;;;24.48;43.36
25084;BME280;13075;55.682;37.564;2022-08-21T06:58:50;100376.44;;;24.53;43.12
25084;BME280;13075;55.682;37.564;2022-08-21T07:01:15;100369.06;;;24.49;42.53
25084;BME280;13075;55.682;37.564;2022-08-21T07:03:42;100371.50;;;24.45;42.08
25084;BME280;13075;55.682;37.564;2022-08-21T07:06:09;100354.88;;;24.97;41.02
25084;BME280;13075;55.682;37.564;2022-08-21T07:08:36;100356.41;;;26.28;39.15
25084;BME280;13075;55.682;37.564;2022-08-21T07:11:06;100341.44;;;29.50;35.39
25084;BME280;13075;55.682;37.564;2022-08-21T07:13:33;100338.78;;;34.36;28.93
25084;BME280;13075;55.682;37.564;2022-08-21T07:15:58;100340.72;;;37.85;25.62
25084;BME280;13075;55.682;37.564;2022-08-21T07:18:24;100335.47;;;39.34;23.68
25084;BME280;13075;55.682;37.564;2022-08-21T07:20:50;100336.63;;;40.57;22.44
25084;BME280;13075;55.682;37.564;2022-08-21T07:23:22;100324.28;;;41.86;19.13
25084;BME280;13075;55.682;37.564;2022-08-21T07:25:49;100336.34;;;41.39;21.18
25084;BME280;13075;55.682;37.564;2022-08-21T07:28:14;100335.59;;;42.61;19.99
25084;BME280;13075;55.682;37.564;2022-08-21T07:30:40;100328.06;;;41.16;20.09
25084;BME280;13075;55.682;37.564;2022-08-21T07:33:06;100333.22;;;41.51;20.51
25084;BME280;13075;55.682;37.564;2022-08-21T07:35:32;100337.69;;;42.10;20.30
25084;BME280;13075;55.682;37.564;2022-08-21T07:37:58;100332.78;;;42.00;19.95
25084;BME280;13075;55.682;37.564;2022-08-21T07:40:25;100337.97;;;41.43;19.74
25084;BME280;13075;55.682;37.564;2022-08-21T07:42:50;100332.13;;;42.13;19.60
25084;BME280;13075;55.682;37.564;2022-08-21T07:45:19;100341.16;;;39.86;20.52
25084;BME280;13075;55.682;37.564;2022-08-21T07:47:46;100337.03;;;40.03;20.72
25084;BME280;13075;55.682;37.564;2022-08-21T07:50:13;100335.53;;;41.86;19.64
25084;BME280;13075;55.682;37.564;2022-08-21T07:52:40;100337.09;;;40.99;19.47
25084;BME280;13075;55.682;37.564;2022-08-21T07:55:07;100330.16;;;41.70;19.03
25084;BME280;13075;55.682;37.564;2022-08-21T07:57:33;100322.56;;;37.95;20.78
25084;BME280;13075;55.682;37.564;2022-08-21T07:59:59;100325.22;;;38.99;20.58
25084;BME280;13075;55.682;37.564;2022-08-21T08:02:28;100312.94;;;38.46;20.16
25084;BME280;13075;55.682;37.564;2022-08-21T08:04:59;100324.97;;;35.59;21.80
25084;BME280;13075;55.682;37.564;2022-08-21T08:07:24;100306.19;;;37.78;20.78
25084;BME280;13075;55.682;37.564;2022-08-21T08:09:50;100312.06;;;38.42;20.23
25084;BME280;13075;55.682;37.564;2022-08-21T08:12:16;100306.25;;;36.60;20.90
25084;BME280;13075;55.682;37.564;2022-08-21T08:14:41;100303.19;;;38.56;20.23
25084;BME280;13075;55.682;37.564;2022-08-21T08:17:07;100292.19;;;38.47;20.42
25084;BME280;13075;55.682;37.564;2022-08-21T08:19:32;100291.19;;;38.21;20.77
25084;BME280;13075;55.682;37.564;2022-08-21T08:21:58;100292.09;;;36.80;21.48
25084;BME280;13075;55.682;37.564;2022-08-21T08:24:24;100294.78;;;36.49;21.64
25084;BME280;13075;55.682;37.564;2022-08-21T08:26:49;100289.91;;;34.56;23.58
25084;BME280;13075;55.682;37.564;2022-08-21T08:29:15;100298.19;;;33.27;24.71
25084;BME280;13075;55.682;37.564;2022-08-21T08:31:40;100286.41;;;32.24;26.03
25084;BME280;13075;55.682;37.564;2022-08-21T08:34:06;100294.91;;;30.92;26.98
25084;BME280;13075;55.682;37.564;2022-08-21T08:36:36;100284.78;;;30.88;26.38
25084;BME280;13075;55.682;37.564;2022-08-21T08:39:04;100290.72;;;30.14;26.79
25084;BME280;13075;55.682;37.564;2022-08-21T08:41:31;100287.38;;;30.04;27.02
25084;BME280;13075;55.682;37.564;2022-08-21T08:44:03;100284.03;;;30.29;26.74
25084;BME280;13075;55.682;37.564;2022-08-21T08:46:41;100290.91;;;29.55;26.60
25084;BME280;13075;55.682;37.564;2022-08-21T08:49:17;100273.91;;;29.48;26.80
25084;BME280;13075;55.682;37.564;2022-08-21T08:54:37;100292.50;;;30.33;26.43
25084;BME280;13075;55.682;37.564;2022-08-21T08:57:09;100291.00;;;29.91;27.11
25084;BME280;13075;55.682;37.564;2022-08-21T08:59:43;100294.56;;;28.77;27.85
25084;BME280;13075;55.682;37.564;2022-08-21T09:02:14;100288.72;;;28.79;28.05
25084;BME280;13075;55.682;37.564;2022-08-21T09:04:40;100292.66;;;28.22;28.48
25084;BME280;13075;55.682;37.564;2022-08-21T09:07:16;100296.56;;;27.97;29.16
25084;BME280;13075;55.682;37.564;2022-08-21T09:25:31;100286.91;;;28.00;29.74
25084;BME280;13075;55.682;37.564;2022-08-21T09:27:57;100281.22;;;27.91;29.61
25084;BME280;13075;55.682;37.564;2022-08-21T09:30:29;100293.50;;;27.99;30.05
25084;BME280;13075;55.682;37.564;2022-08-21T09:32:56;100294.03;;;28.01;29.24
25084;BME280;13075;55.682;37.564;2022-08-21T09:35:22;100268.22;;;27.97;29.35
25084;BME280;13075;55.682;37.564;2022-08-21T09:37:51;100287.84;;;27.90;28.87
25084;BME280;13075;55.682;37.564;2022-08-21T09:43:06;100277.19;;;27.65;29.14
25084;BME280;13075;55.682;37.564;2022-08-21T09:45:40;100277.94;;;27.70;28.96
25084;BME280;13075;55.682;37.564;2022-08-21T09:48:22;100288.00;;;27.33;28.62
25084;BME280;13075;55.682;37.564;2022-08-21T09:50:49;100285.31;;;27.28;28.47
25084;BME280;13075;55.682;37.564;2022-08-21T09:53:25;100290.78;;;26.70;28.06
25084;BME280;13075;55.682;37.564;2022-08-21T09:55:54;100292.25;;;26.96;28.05
25084;BME280;13075;55.682;37.564;2022-08-21T09:58:43;100293.53;;;26.70;28.62
25084;BME280;13075;55.682;37.564;2022-08-21T10:01:22;100296.50;;;26.45;28.82
25084;BME280;13075;55.682;37.564;2022-08-21T10:03:49;100298.69;;;26.43;29.05
25084;BME280;13075;55.682;37.564;2022-08-21T10:06:27;100294.09;;;26.33;29.33
25084;BME280;13075;55.682;37.564;2022-08-21T10:09:08;100291.09;;;26.35;29.33
25084;BME280;13075;55.682;37.564;2022-08-21T10:11:36;100294.09;;;26.33;29.58
25084;BME280;13075;55.682;37.564;2022-08-21T10:16:41;100284.31;;;26.17;30.32
25084;BME280;13075;55.682;37.564;2022-08-21T10:32:56;100266.25;;;26.16;31.05
25084;BME280;13075;55.682;37.564;2022-08-21T10:38:46;100268.88;;;26.31;31.39
25084;BME280;13075;55.682;37.564;2022-08-21T10:41:22;100274.69;;;26.25;31.05
25084;BME280;13075;55.682;37.564;2022-08-21T10:47:49;100271.63;;;26.31;30.72
25084;BME280;13075;55.682;37.564;2022-08-21T10:51:20;100261.56;;;26.22;30.48
25084;BME280;13075;55.682;37.564;2022-08-21T10:53:44;100254.56;;;26.39;30.65
25084;BME280;13075;55.682;37.564;2022-08-21T10:56:26;100249.09;;;26.34;30.58
25084;BME280;13075;55.682;37.564;2022-08-21T11:05:10;100236.06;;;26.16;30.94
25084;BME280;13075;55.682;37.564;2022-08-21T11:07:43;100233.38;;;26.06;31.30
25084;BME280;13075;55.682;37.564;2022-08-21T11:10:27;100238.72;;;26.26;31.17
25084;BME280;13075;55.682;37.564;2022-08-21T11:18:42;100250.25;;;26.28;30.82
25084;BME280;13075;55.682;37.564;2022-08-21T11:21:36;100247.25;;;26.25;31.31
25084;BME280;13075;55.682;37.564;2022-08-21T11:26:49;100253.69;;;26.44;31.07
25084;BME280;13075;55.682;37.564;2022-08-21T11:29:25;100248.72;;;26.46;31.13
25084;BME280;13075;55.682;37.564;2022-08-21T11:40:19;100239.81;;;26.25;31.11
25084;BME280;13075;55.682;37.564;2022-08-21T11:43:09;100244.31;;;26.11;31.51
25084;BME280;13075;55.682;37.564;2022-08-21T11:45:56;100239.41;;;26.03;31.41
25084;BME280;13075;55.682;37.564;2022-08-21T11:49:04;100227.84;;;26.11;31.91
25084;BME280;13075;55.682;37.564;2022-08-21T12:00:24;100221.66;;;25.95;32.66
25084;BME280;13075;55.682;37.564;2022-08-21T12:02:54;100214.88;;;25.83;32.74
25084;BME280;13075;55.682;37.564;2022-08-21T12:08:10;100221.88;;;25.99;33.20
25084;BME280;13075;55.682;37.564;2022-08-21T12:10:45;100221.19;;;25.83;33.40
25084;BME280;13075;55.682;37.564;2022-08-21T12:13:24;100228.53;;;25.93;33.48
25084;BME280;13075;55.682;37.564;2022-08-21T12:15:50;100219.44;;;25.97;33.29
25084;BME280;13075;55.682;37.564;2022-08-21T12:18:23;100221.91;;;25.94;33.02
25084;BME280;13075;55.682;37.564;2022-08-21T12:29:15;100233.38;;;26.06;33.65
25084;BME280;13075;55.682;37.564;2022-08-21T12:34:40;100236.16;;;26.01;33.60
25084;BME280;13075;55.682;37.564;2022-08-21T12:39:52;100233.16;;;25.97;33.72
25084;BME280;13075;55.682;37.564;2022-08-21T12:42:23;100225.00;;;25.87;33.05
25084;BME280;13075;55.682;37.564;2022-08-21T12:44:54;100224.19;;;25.82;32.54
25084;BME280;13075;55.682;37.564;2022-08-21T12:50:09;100220.59;;;25.86;31.61
25084;BME280;13075;55.682;37.564;2022-08-21T12:53:23;100217.63;;;25.83;31.88
25084;BME280;13075;55.682;37.564;2022-08-21T12:55:32;100215.63;;;25.93;31.96
25084;BME280;13075;55.682;37.564;2022-08-21T12:57:58;100217.81;;;25.91;32.07
25084;BME280;13075;55.682;37.564;2022-08-21T13:00:26;100209.97;;;25.80;32.13
25084;BME280;13075;55.682;37.564;2022-08-21T13:02:53;100212.16;;;25.78;32.19
25084;BME280;13075;55.682;37.564;2022-08-21T13:05:27;100211.84;;;25.84;31.92
25084;BME280;13075;55.682;37.564;2022-08-21T13:07:54;100208.50;;;25.92;32.44
25084;BME280;13075;55.682;37.564;2022-08-21T13:10:28;100214.00;;;25.92;32.79
25084;BME280;13075;55.682;37.564;2022-08-21T13:12:57;100205.47;;;25.94;33.17
25084;BME280;13075;55.682;37.564;2022-08-21T13:15:34;100206.50;;;26.03;32.63
25084;BME280;13075;55.682;37.564;2022-08-21T13:18:02;100211.72;;;25.99;33.34
25084;BME280;13075;55.682;37.564;2022-08-21T13:20:31;100201.31;;;25.96;32.67
25084;BME280;13075;55.682;37.564;2022-08-21T13:22:58;100203.28;;;25.96;32.39
25084;BME280;13075;55.682;37.564;2022-08-21T13:25:28;100205.09;;;26.11;32.28
25084;BME280;13075;55.682;37.564;2022-08-21T13:28:09;100197.41;;;26.08;31.76
25084;BME280;13075;55.682;37.564;2022-08-21T13:30:43;100201.84;;;26.04;31.50
25084;BME280;13075;55.682;37.564;2022-08-21T13:33:09;100200.97;;;26.08;31.63
25084;BME280;13075;55.682;37.564;2022-08-21T13:35:49;100202.94;;;26.02;31.38
25084;BME280;13075;55.682;37.564;2022-08-21T13:38:19;100198.19;;;26.18;31.50
25084;BME280;13075;55.682;37.564;2022-08-21T13:43:20;100198.97;;;26.24;31.32
25084;BME280;13075;55.682;37.564;2022-08-21T13:45:50;100206.72;;;26.12;31.60
25084;BME280;13075;55.682;37.564;2022-08-21T13:48:16;100195.19;;;26.10;31.68
25084;BME280;13075;55.682;37.564;2022-08-21T13:50:42;100201.72;;;26.24;31.87
25084;BME280;13075;55.682;37.564;2022-08-21T13:55:47;100196.06;;;26.05;31.51
25084;BME280;13075;55.682;37.564;2022-08-21T13:58:24;100175.78;;;26.06;31.72
25084;BME280;13075;55.682;37.564;2022-08-21T14:00:51;100182.47;;;25.90;31.67
25084;BME280;13075;55.682;37.564;2022-08-21T14:03:44;100184.91;;;25.91;31.69
25084;BME280;13075;55.682;37.564;2022-08-21T14:06:18;100183.53;;;25.94;31.70
25084;BME280;13075;55.682;37.564;2022-08-21T14:08:51;100182.91;;;26.02;31.62
25084;BME280;13075;55.682;37.564;2022-08-21T14:11:19;100178.66;;;25.86;31.78
25084;BME280;13075;55.682;37.564;2022-08-21T14:13:49;100179.50;;;25.81;31.46
25084;BME280;13075;55.682;37.564;2022-08-21T14:16:28;100181.91;;;25.93;31.80
25084;BME280;13075;55.682;37.564;2022-08-21T14:21:37;100182.75;;;25.88;31.49
25084;BME280;13075;55.682;37.564;2022-08-21T14:26:34;100194.38;;;25.75;31.51
25084;BME280;13075;55.682;37.564;2022-08-21T14:29:02;100183.66;;;25.74;31.76
25084;BME280;13075;55.682;37.564;2022-08-21T14:31:31;100177.69;;;25.67;31.92
25084;BME280;13075;55.682;37.564;2022-08-21T14:33:59;100183.19;;;25.62;31.75
25084;BME280;13075;55.682;37.564;2022-08-21T14:36:24;100181.84;;;25.59;31.78
25084;BME280;13075;55.682;37.564;2022-08-21T14:38:50;100188.16;;;25.60;31.60